sensor_id;sensor_type;location;lat;lon;timestamp;P1;durP1;ratioP1;P2;durP2;ratioP2
6842;SDS011;3460;52.028;8.916;2023-07-31T00:00:10;3.60;;;3.10;;
6842;SDS011;3460;52.028;8.916;2023-07-31T00:02:38;3.80;;;3.40;;
6842;SDS011;3460;52.028;8.916;2023-07-31T00:05:05;1.83;;;1.73;;
6842;SDS011;3460;52.028;8.916;2023-07-31T00:07:33;2.73;;;1.20;;
6842;SDS011;3460;52.028;8.916;2023-07-31T00:10:00;4.37;;;4.00;;
6842;SDS011;3460;52.028;8.916;2023-07-31T00:12:27;4.33;;;2.17;;
6842;SDS011;3460;52.028;8.916;2023-07-31T00:14:54;1.60;;;1.50;;
6842;SDS011;3460;52.028;8.916;2023-07-31T00:17:21;4.20;;;3.63;;
6842;SDS011;3460;52.028;8.916;2023-07-31T00:19:48;4.43;;;4.10;;
6842;SDS011;3460;52.028;8.916;2023-07-31T00:22:15;3.43;;;3.13;;
6842;SDS011;3460;52.028;8.916;2023-07-31T00:24:43;2.23;;;2.10;;
6842;SDS011;3460;52.028;8.916;2023-07-31T00:27:10;2.60;;;1.90;;
6842;SDS011;3460;52.028;8.916;2023-07-31T00:29:37;1.30;;;0.80;;
6842;SDS011;3460;52.028;8.916;2023-07-31T00:32:04;2.80;;;2.40;;
6842;SDS011;3460;52.028;8.916;2023-07-31T00:34:32;3.47;;;1.67;;
6842;SDS011;3460;52.028;8.916;2023-07-31T00:36:58;0.80;;;0.80;;
6842;SDS011;3460;52.028;8.916;2023-07-31T00:39:25;3.77;;;3.40;;
6842;SDS011;3460;52.028;8.916;2023-07-31T00:41:53;1.23;;;0.80;;
6842;SDS011;3460;52.028;8.916;2023-07-31T00:44:20;1.43;;;1.27;;
6842;SDS011;3460;52.028;8.916;2023-07-31T00:46:47;4.10;;;3.77;;
6842;SDS011;3460;52.028;8.916;2023-07-31T00:49:14;2.20;;;1.17;;
6842;SDS011;3460;52.028;8.916;2023-07-31T00:51:41;3.37;;;3.07;;
6842;SDS011;3460;52.028;8.916;2023-07-31T00:54:08;4.63;;;4.20;;
6842;SDS011;3460;52.028;8.916;2023-07-31T00:56:36;1.63;;;1.53;;
6842;SDS011;3460;52.028;8.916;2023-07-31T00:59:06;2.90;;;2.70;;
6842;SDS011;3460;52.028;8.916;2023-07-31T01:01:32;1.77;;;1.40;;
6842;SDS011;3460;52.028;8.916;2023-07-31T01:03:59;1.60;;;1.50;;
6842;SDS011;3460;52.028;8.916;2023-07-31T01:06:28;5.80;;;5.23;;
6842;SDS011;3460;52.028;8.916;2023-07-31T01:08:58;2.47;;;2.27;;
6842;SDS011;3460;52.028;8.916;2023-07-31T01:11:30;2.00;;;1.90;;
6842;SDS011;3460;52.028;8.916;2023-07-31T01:13:59;3.77;;;2.17;;
6842;SDS011;3460;52.028;8.916;2023-07-31T01:16:27;2.30;;;1.10;;
6842;SDS011;3460;52.028;8.916;2023-07-31T01:18:54;2.23;;;1.10;;
6842;SDS011;3460;52.028;8.916;2023-07-31T01:21:30;1.47;;;1.20;;
6842;SDS011;3460;52.028;8.916;2023-07-31T01:24:21;1.20;;;1.10;;
6842;SDS011;3460;52.028;8.916;2023-07-31T01:26:57;4.70;;;4.30;;
6842;SDS011;3460;52.028;8.916;2023-07-31T01:29:32;2.20;;;1.17;;
6842;SDS011;3460;52.028;8.916;2023-07-31T01:32:04;1.67;;;1.40;;
6842;SDS011;3460;52.028;8.916;2023-07-31T01:34:33;1.60;;;1.20;;
6842;SDS011;3460;52.028;8.916;2023-07-31T01:37:03;4.57;;;3.80;;
6842;SDS011;3460;52.028;8.916;2023-07-31T01:39:30;2.43;;;2.20;;
6842;SDS011;3460;52.028;8.916;2023-07-31T01:41:58;4.00;;;3.70;;
6842;SDS011;3460;52.028;8.916;2023-07-31T01:44:25;3.03;;;2.30;;
6842;SDS011;3460;52.028;8.916;2023-07-31T01:46:51;5.67;;;1.77;;
6842;SDS011;3460;52.028;8.916;2023-07-31T01:49:18;0.90;;;0.90;;
6842;SDS011;3460;52.028;8.916;2023-07-31T01:51:45;2.07;;;1.93;;
6842;SDS011;3460;52.028;8.916;2023-07-31T01:54:12;2.03;;;1.27;;
6842;SDS011;3460;52.028;8.916;2023-07-31T01:56:38;2.10;;;1.27;;
6842;SDS011;3460;52.028;8.916;2023-07-31T01:59:07;2.60;;;2.07;;
6842;SDS011;3460;52.028;8.916;2023-07-31T02:01:33;1.13;;;0.97;;
6842;SDS011;3460;52.028;8.916;2023-07-31T02:04:00;1.20;;;1.10;;
6842;SDS011;3460;52.028;8.916;2023-07-31T02:06:27;2.27;;;1.53;;
6842;SDS011;3460;52.028;8.916;2023-07-31T02:08:54;1.77;;;1.30;;
6842;SDS011;3460;52.028;8.916;2023-07-31T02:11:21;1.73;;;1.63;;
6842;SDS011;3460;52.028;8.916;2023-07-31T02:13:48;3.30;;;3.00;;
6842;SDS011;3460;52.028;8.916;2023-07-31T02:16:16;2.33;;;2.13;;
6842;SDS011;3460;52.028;8.916;2023-07-31T02:18:43;5.73;;;3.63;;
6842;SDS011;3460;52.028;8.916;2023-07-31T02:21:10;4.80;;;4.40;;
6842;SDS011;3460;52.028;8.916;2023-07-31T02:23:37;2.13;;;1.83;;
6842;SDS011;3460;52.028;8.916;2023-07-31T02:26:03;2.60;;;2.13;;
6842;SDS011;3460;52.028;8.916;2023-07-31T02:28:30;5.20;;;4.70;;
6842;SDS011;3460;52.028;8.916;2023-07-31T02:30:57;5.00;;;4.60;;
6842;SDS011;3460;52.028;8.916;2023-07-31T02:33:25;3.57;;;3.03;;
6842;SDS011;3460;52.028;8.916;2023-07-31T02:35:52;2.27;;;1.40;;
6842;SDS011;3460;52.028;8.916;2023-07-31T02:38:19;3.23;;;3.00;;
6842;SDS011;3460;52.028;8.916;2023-07-31T02:40:45;5.50;;;4.53;;
6842;SDS011;3460;52.028;8.916;2023-07-31T02:43:13;4.67;;;4.20;;
6842;SDS011;3460;52.028;8.916;2023-07-31T02:45:40;1.57;;;1.47;;
6842;SDS011;3460;52.028;8.916;2023-07-31T02:48:06;4.50;;;4.20;;
6842;SDS011;3460;52.028;8.916;2023-07-31T02:50:34;2.90;;;2.60;;
6842;SDS011;3460;52.028;8.916;2023-07-31T02:53:01;2.00;;;0.93;;
6842;SDS011;3460;52.028;8.916;2023-07-31T02:55:28;1.87;;;1.20;;
6842;SDS011;3460;52.028;8.916;2023-07-31T02:57:55;3.30;;;3.00;;
6842;SDS011;3460;52.028;8.916;2023-07-31T03:00:23;1.17;;;1.07;;
6842;SDS011;3460;52.028;8.916;2023-07-31T03:02:50;2.30;;;1.27;;
6842;SDS011;3460;52.028;8.916;2023-07-31T03:05:16;3.10;;;2.87;;
6842;SDS011;3460;52.028;8.916;2023-07-31T03:07:44;2.50;;;2.10;;
6842;SDS011;3460;52.028;8.916;2023-07-31T03:10:11;2.80;;;2.57;;
6842;SDS011;3460;52.028;8.916;2023-07-31T03:12:38;1.90;;;1.10;;
6842;SDS011;3460;52.028;8.916;2023-07-31T03:15:06;2.80;;;1.30;;
6842;SDS011;3460;52.028;8.916;2023-07-31T03:17:34;1.70;;;1.40;;
6842;SDS011;3460;52.028;8.916;2023-07-31T03:20:00;1.97;;;1.47;;
6842;SDS011;3460;52.028;8.916;2023-07-31T03:22:27;1.73;;;1.20;;
6842;SDS011;3460;52.028;8.916;2023-07-31T03:24:55;2.80;;;2.60;;
6842;SDS011;3460;52.028;8.916;2023-07-31T03:27:22;1.20;;;1.00;;
6842;SDS011;3460;52.028;8.916;2023-07-31T03:29:49;13.40;;;1.40;;
6842;SDS011;3460;52.028;8.916;2023-07-31T03:32:16;1.80;;;1.33;;
6842;SDS011;3460;52.028;8.916;2023-07-31T03:34:43;2.13;;;1.93;;
6842;SDS011;3460;52.028;8.916;2023-07-31T03:37:10;2.73;;;2.50;;
6842;SDS011;3460;52.028;8.916;2023-07-31T03:39:37;2.17;;;0.97;;
6842;SDS011;3460;52.028;8.916;2023-07-31T03:42:05;2.37;;;1.63;;
6842;SDS011;3460;52.028;8.916;2023-07-31T03:44:32;2.63;;;2.37;;
6842;SDS011;3460;52.028;8.916;2023-07-31T03:46:59;3.17;;;1.90;;
6842;SDS011;3460;52.028;8.916;2023-07-31T03:49:26;9.30;;;6.60;;
6842;SDS011;3460;52.028;8.916;2023-07-31T03:51:53;4.37;;;3.97;;
6842;SDS011;3460;52.028;8.916;2023-07-31T03:54:20;5.33;;;3.60;;
6842;SDS011;3460;52.028;8.916;2023-07-31T03:56:47;7.43;;;4.07;;
6842;SDS011;3460;52.028;8.916;2023-07-31T03:59:15;12.90;;;8.53;;
6842;SDS011;3460;52.028;8.916;2023-07-31T04:01:42;10.03;;;6.33;;
6842;SDS011;3460;52.028;8.916;2023-07-31T04:04:08;6.87;;;4.77;;
6842;SDS011;3460;52.028;8.916;2023-07-31T04:06:35;8.37;;;5.43;;
6842;SDS011;3460;52.028;8.916;2023-07-31T04:09:02;12.77;;;10.20;;
6842;SDS011;3460;52.028;8.916;2023-07-31T04:11:29;13.20;;;6.30;;
6842;SDS011;3460;52.028;8.916;2023-07-31T04:13:56;10.73;;;5.70;;
6842;SDS011;3460;52.028;8.916;2023-07-31T04:16:24;12.53;;;9.23;;
6842;SDS011;3460;52.028;8.916;2023-07-31T04:18:51;11.43;;;6.30;;
6842;SDS011;3460;52.028;8.916;2023-07-31T04:21:18;15.00;;;9.70;;
6842;SDS011;3460;52.028;8.916;2023-07-31T04:23:44;10.97;;;7.23;;
6842;SDS011;3460;52.028;8.916;2023-07-31T04:26:11;15.67;;;9.83;;
6842;SDS011;3460;52.028;8.916;2023-07-31T04:28:38;11.20;;;8.57;;
6842;SDS011;3460;52.028;8.916;2023-07-31T04:31:05;11.50;;;7.17;;
6842;SDS011;3460;52.028;8.916;2023-07-31T04:33:33;11.77;;;7.80;;
6842;SDS011;3460;52.028;8.916;2023-07-31T04:36:00;15.87;;;7.77;;
6842;SDS011;3460;52.028;8.916;2023-07-31T04:38:27;15.27;;;6.43;;
6842;SDS011;3460;52.028;8.916;2023-07-31T04:40:53;21.77;;;16.20;;
6842;SDS011;3460;52.028;8.916;2023-07-31T04:43:20;14.70;;;9.53;;
6842;SDS011;3460;52.028;8.916;2023-07-31T04:45:47;13.27;;;7.90;;
6842;SDS011;3460;52.028;8.916;2023-07-31T04:48:15;14.17;;;8.83;;
6842;SDS011;3460;52.028;8.916;2023-07-31T04:50:43;14.57;;;9.47;;
6842;SDS011;3460;52.028;8.916;2023-07-31T04:53:10;13.70;;;8.60;;
6842;SDS011;3460;52.028;8.916;2023-07-31T04:55:37;19.17;;;10.37;;
6842;SDS011;3460;52.028;8.916;2023-07-31T04:58:04;11.30;;;7.17;;
6842;SDS011;3460;52.028;8.916;2023-07-31T05:00:31;14.77;;;9.00;;
6842;SDS011;3460;52.028;8.916;2023-07-31T05:02:58;13.47;;;7.43;;
6842;SDS011;3460;52.028;8.916;2023-07-31T05:05:24;18.50;;;8.80;;
6842;SDS011;3460;52.028;8.916;2023-07-31T05:07:53;17.87;;;9.13;;
6842;SDS011;3460;52.028;8.916;2023-07-31T05:10:19;19.53;;;10.90;;
6842;SDS011;3460;52.028;8.916;2023-07-31T05:12:46;12.83;;;6.57;;
6842;SDS011;3460;52.028;8.916;2023-07-31T05:15:13;10.97;;;6.07;;
6842;SDS011;3460;52.028;8.916;2023-07-31T05:17:40;14.03;;;11.47;;
6842;SDS011;3460;52.028;8.916;2023-07-31T05:20:07;14.27;;;9.67;;
6842;SDS011;3460;52.028;8.916;2023-07-31T05:22:34;15.40;;;8.87;;
6842;SDS011;3460;52.028;8.916;2023-07-31T05:25:03;10.70;;;7.80;;
6842;SDS011;3460;52.028;8.916;2023-07-31T05:27:30;14.67;;;8.03;;
6842;SDS011;3460;52.028;8.916;2023-07-31T05:29:57;18.93;;;9.03;;
6842;SDS011;3460;52.028;8.916;2023-07-31T05:32:24;18.03;;;9.03;;
6842;SDS011;3460;52.028;8.916;2023-07-31T05:34:51;17.63;;;9.80;;
6842;SDS011;3460;52.028;8.916;2023-07-31T05:37:18;19.67;;;9.13;;
6842;SDS011;3460;52.028;8.916;2023-07-31T05:39:45;20.27;;;14.77;;
6842;SDS011;3460;52.028;8.916;2023-07-31T05:42:13;14.73;;;9.27;;
6842;SDS011;3460;52.028;8.916;2023-07-31T05:44:40;13.43;;;7.87;;
6842;SDS011;3460;52.028;8.916;2023-07-31T05:47:07;15.53;;;9.90;;
6842;SDS011;3460;52.028;8.916;2023-07-31T05:49:34;17.33;;;10.33;;
6842;SDS011;3460;52.028;8.916;2023-07-31T05:52:01;13.03;;;9.10;;
6842;SDS011;3460;52.028;8.916;2023-07-31T05:54:28;12.83;;;7.47;;
6842;SDS011;3460;52.028;8.916;2023-07-31T05:56:54;12.90;;;9.40;;
6842;SDS011;3460;52.028;8.916;2023-07-31T05:59:22;15.17;;;6.53;;
6842;SDS011;3460;52.028;8.916;2023-07-31T06:01:49;13.87;;;9.10;;
6842;SDS011;3460;52.028;8.916;2023-07-31T06:04:16;17.63;;;14.13;;
6842;SDS011;3460;52.028;8.916;2023-07-31T06:06:43;16.53;;;9.93;;
6842;SDS011;3460;52.028;8.916;2023-07-31T06:09:10;9.20;;;5.80;;
6842;SDS011;3460;52.028;8.916;2023-07-31T06:11:37;21.27;;;12.27;;
6842;SDS011;3460;52.028;8.916;2023-07-31T06:14:03;14.40;;;7.57;;
6842;SDS011;3460;52.028;8.916;2023-07-31T06:16:32;14.70;;;6.70;;
6842;SDS011;3460;52.028;8.916;2023-07-31T06:18:58;12.70;;;8.23;;
6842;SDS011;3460;52.028;8.916;2023-07-31T06:21:25;18.30;;;12.17;;
6842;SDS011;3460;52.028;8.916;2023-07-31T06:23:52;15.20;;;8.10;;
6842;SDS011;3460;52.028;8.916;2023-07-31T06:26:19;11.23;;;8.23;;
6842;SDS011;3460;52.028;8.916;2023-07-31T06:28:46;11.87;;;5.70;;
6842;SDS011;3460;52.028;8.916;2023-07-31T06:31:13;18.63;;;13.70;;
6842;SDS011;3460;52.028;8.916;2023-07-31T06:33:41;11.67;;;7.37;;
6842;SDS011;3460;52.028;8.916;2023-07-31T06:36:07;22.43;;;12.10;;
6842;SDS011;3460;52.028;8.916;2023-07-31T06:38:34;15.57;;;7.47;;
6842;SDS011;3460;52.028;8.916;2023-07-31T06:41:02;12.70;;;7.47;;
6842;SDS011;3460;52.028;8.916;2023-07-31T06:43:30;12.23;;;6.70;;
6842;SDS011;3460;52.028;8.916;2023-07-31T06:45:56;9.87;;;5.20;;
6842;SDS011;3460;52.028;8.916;2023-07-31T06:48:23;19.63;;;8.27;;
6842;SDS011;3460;52.028;8.916;2023-07-31T06:50:51;10.93;;;6.00;;
6842;SDS011;3460;52.028;8.916;2023-07-31T06:53:18;21.77;;;9.53;;
6842;SDS011;3460;52.028;8.916;2023-07-31T06:55:45;16.07;;;10.67;;
6842;SDS011;3460;52.028;8.916;2023-07-31T06:58:13;20.47;;;14.03;;
6842;SDS011;3460;52.028;8.916;2023-07-31T07:00:40;12.13;;;8.67;;
6842;SDS011;3460;52.028;8.916;2023-07-31T07:03:06;14.47;;;6.20;;
6842;SDS011;3460;52.028;8.916;2023-07-31T07:05:33;8.00;;;5.03;;
6842;SDS011;3460;52.028;8.916;2023-07-31T07:08:01;13.43;;;6.40;;
6842;SDS011;3460;52.028;8.916;2023-07-31T07:10:28;18.00;;;10.63;;
6842;SDS011;3460;52.028;8.916;2023-07-31T07:12:55;13.53;;;7.87;;
6842;SDS011;3460;52.028;8.916;2023-07-31T07:15:22;12.77;;;5.60;;
6842;SDS011;3460;52.028;8.916;2023-07-31T07:17:49;12.03;;;5.43;;
6842;SDS011;3460;52.028;8.916;2023-07-31T07:20:15;9.47;;;5.83;;
6842;SDS011;3460;52.028;8.916;2023-07-31T07:22:44;12.53;;;6.53;;
6842;SDS011;3460;52.028;8.916;2023-07-31T07:25:12;11.10;;;8.10;;
6842;SDS011;3460;52.028;8.916;2023-07-31T07:27:39;8.50;;;5.27;;
6842;SDS011;3460;52.028;8.916;2023-07-31T07:30:06;12.97;;;6.17;;
6842;SDS011;3460;52.028;8.916;2023-07-31T07:32:33;16.90;;;10.17;;
6842;SDS011;3460;52.028;8.916;2023-07-31T07:35:00;13.10;;;6.20;;
6842;SDS011;3460;52.028;8.916;2023-07-31T07:37:27;13.27;;;8.53;;
6842;SDS011;3460;52.028;8.916;2023-07-31T07:39:54;11.03;;;8.30;;
6842;SDS011;3460;52.028;8.916;2023-07-31T07:42:22;13.30;;;7.33;;
6842;SDS011;3460;52.028;8.916;2023-07-31T07:44:49;14.23;;;6.73;;
6842;SDS011;3460;52.028;8.916;2023-07-31T07:47:16;18.60;;;12.17;;
6842;SDS011;3460;52.028;8.916;2023-07-31T07:49:43;14.93;;;7.57;;
6842;SDS011;3460;52.028;8.916;2023-07-31T07:52:09;11.37;;;5.97;;
6842;SDS011;3460;52.028;8.916;2023-07-31T07:54:36;13.43;;;5.30;;
6842;SDS011;3460;52.028;8.916;2023-07-31T07:57:03;12.53;;;6.90;;
6842;SDS011;3460;52.028;8.916;2023-07-31T07:59:32;22.00;;;11.50;;
6842;SDS011;3460;52.028;8.916;2023-07-31T08:01:58;18.97;;;10.80;;
6842;SDS011;3460;52.028;8.916;2023-07-31T08:04:25;8.40;;;3.70;;
6842;SDS011;3460;52.028;8.916;2023-07-31T08:06:52;11.10;;;6.80;;
6842;SDS011;3460;52.028;8.916;2023-07-31T08:09:19;15.50;;;12.30;;
6842;SDS011;3460;52.028;8.916;2023-07-31T08:11:45;12.10;;;6.80;;
6842;SDS011;3460;52.028;8.916;2023-07-31T08:14:13;8.60;;;5.57;;
6842;SDS011;3460;52.028;8.916;2023-07-31T08:16:41;7.57;;;4.90;;
6842;SDS011;3460;52.028;8.916;2023-07-31T08:19:08;6.77;;;3.50;;
6842;SDS011;3460;52.028;8.916;2023-07-31T08:21:35;5.17;;;3.23;;
6842;SDS011;3460;52.028;8.916;2023-07-31T08:24:01;3.67;;;3.23;;
6842;SDS011;3460;52.028;8.916;2023-07-31T08:26:28;3.97;;;3.10;;
6842;SDS011;3460;52.028;8.916;2023-07-31T08:28:55;3.83;;;2.67;;
6842;SDS011;3460;52.028;8.916;2023-07-31T08:31:22;3.10;;;2.80;;
6842;SDS011;3460;52.028;8.916;2023-07-31T08:33:50;4.70;;;2.57;;
6842;SDS011;3460;52.028;8.916;2023-07-31T08:36:17;2.37;;;2.17;;
6842;SDS011;3460;52.028;8.916;2023-07-31T08:38:44;4.47;;;3.30;;
6842;SDS011;3460;52.028;8.916;2023-07-31T08:41:11;2.77;;;2.37;;
6842;SDS011;3460;52.028;8.916;2023-07-31T08:43:39;4.03;;;2.30;;
6842;SDS011;3460;52.028;8.916;2023-07-31T08:46:06;2.93;;;2.10;;
6842;SDS011;3460;52.028;8.916;2023-07-31T08:48:33;3.97;;;2.50;;
6842;SDS011;3460;52.028;8.916;2023-07-31T08:51:04;2.80;;;2.30;;
6842;SDS011;3460;52.028;8.916;2023-07-31T08:53:32;6.83;;;5.60;;
6842;SDS011;3460;52.028;8.916;2023-07-31T08:55:59;4.53;;;2.77;;
6842;SDS011;3460;52.028;8.916;2023-07-31T08:58:26;5.60;;;3.10;;
6842;SDS011;3460;52.028;8.916;2023-07-31T09:00:56;11.70;;;8.37;;
6842;SDS011;3460;52.028;8.916;2023-07-31T09:03:24;6.03;;;4.87;;
6842;SDS011;3460;52.028;8.916;2023-07-31T09:05:51;6.17;;;3.63;;
6842;SDS011;3460;52.028;8.916;2023-07-31T09:08:22;7.30;;;4.97;;
6842;SDS011;3460;52.028;8.916;2023-07-31T09:10:50;7.43;;;4.70;;
6842;SDS011;3460;52.028;8.916;2023-07-31T09:13:17;7.73;;;5.20;;
6842;SDS011;3460;52.028;8.916;2023-07-31T09:15:44;8.67;;;6.03;;
6842;SDS011;3460;52.028;8.916;2023-07-31T09:18:12;5.57;;;4.77;;
6842;SDS011;3460;52.028;8.916;2023-07-31T09:20:42;5.47;;;4.83;;
6842;SDS011;3460;52.028;8.916;2023-07-31T09:23:10;11.67;;;7.57;;
6842;SDS011;3460;52.028;8.916;2023-07-31T09:25:39;14.63;;;11.53;;
6842;SDS011;3460;52.028;8.916;2023-07-31T09:28:06;3.80;;;3.17;;
6842;SDS011;3460;52.028;8.916;2023-07-31T09:30:44;7.27;;;5.07;;
6842;SDS011;3460;52.028;8.916;2023-07-31T09:33:13;5.77;;;4.17;;
6842;SDS011;3460;52.028;8.916;2023-07-31T09:35:40;6.23;;;4.73;;
6842;SDS011;3460;52.028;8.916;2023-07-31T09:38:17;5.37;;;3.47;;
6842;SDS011;3460;52.028;8.916;2023-07-31T09:40:46;17.93;;;8.57;;
6842;SDS011;3460;52.028;8.916;2023-07-31T09:46:05;8.00;;;5.23;;
6842;SDS011;3460;52.028;8.916;2023-07-31T09:48:39;5.67;;;5.00;;
6842;SDS011;3460;52.028;8.916;2023-07-31T09:51:06;6.10;;;3.63;;
6842;SDS011;3460;52.028;8.916;2023-07-31T09:53:33;5.67;;;3.73;;
6842;SDS011;3460;52.028;8.916;2023-07-31T09:56:01;13.30;;;7.00;;
6842;SDS011;3460;52.028;8.916;2023-07-31T09:58:29;11.30;;;6.50;;
6842;SDS011;3460;52.028;8.916;2023-07-31T10:01:00;12.07;;;7.43;;
6842;SDS011;3460;52.028;8.916;2023-07-31T10:03:28;4.57;;;3.50;;
6842;SDS011;3460;52.028;8.916;2023-07-31T10:05:57;10.73;;;8.07;;
6842;SDS011;3460;52.028;8.916;2023-07-31T10:08:27;8.87;;;5.97;;
6842;SDS011;3460;52.028;8.916;2023-07-31T10:10:55;11.07;;;7.40;;
6842;SDS011;3460;52.028;8.916;2023-07-31T10:13:26;4.90;;;3.60;;
6842;SDS011;3460;52.028;8.916;2023-07-31T10:15:54;6.63;;;4.37;;
6842;SDS011;3460;52.028;8.916;2023-07-31T10:18:26;10.90;;;6.33;;
6842;SDS011;3460;52.028;8.916;2023-07-31T10:20:53;13.37;;;7.63;;
6842;SDS011;3460;52.028;8.916;2023-07-31T10:23:21;4.43;;;3.40;;
6842;SDS011;3460;52.028;8.916;2023-07-31T10:25:49;6.13;;;3.67;;
6842;SDS011;3460;52.028;8.916;2023-07-31T10:28:17;6.83;;;4.93;;
6842;SDS011;3460;52.028;8.916;2023-07-31T10:30:45;6.77;;;4.40;;
6842;SDS011;3460;52.028;8.916;2023-07-31T10:33:13;31.13;;;25.53;;
6842;SDS011;3460;52.028;8.916;2023-07-31T10:35:41;5.07;;;3.93;;
6842;SDS011;3460;52.028;8.916;2023-07-31T10:38:11;9.23;;;5.00;;
6842;SDS011;3460;52.028;8.916;2023-07-31T10:40:39;8.47;;;4.50;;
6842;SDS011;3460;52.028;8.916;2023-07-31T10:43:06;21.13;;;10.13;;
6842;SDS011;3460;52.028;8.916;2023-07-31T10:45:34;7.80;;;5.30;;
6842;SDS011;3460;52.028;8.916;2023-07-31T10:48:04;6.07;;;3.10;;
6842;SDS011;3460;52.028;8.916;2023-07-31T10:50:31;3.80;;;3.20;;
6842;SDS011;3460;52.028;8.916;2023-07-31T10:52:59;15.13;;;10.83;;
6842;SDS011;3460;52.028;8.916;2023-07-31T10:55:27;5.77;;;3.90;;
6842;SDS011;3460;52.028;8.916;2023-07-31T10:57:56;3.80;;;3.33;;
6842;SDS011;3460;52.028;8.916;2023-07-31T11:00:30;3.97;;;2.80;;
6842;SDS011;3460;52.028;8.916;2023-07-31T11:02:58;6.77;;;5.10;;
6842;SDS011;3460;52.028;8.916;2023-07-31T11:08:28;6.63;;;4.60;;
6842;SDS011;3460;52.028;8.916;2023-07-31T11:11:06;4.70;;;3.63;;
6842;SDS011;3460;52.028;8.916;2023-07-31T11:13:34;3.43;;;3.10;;
6842;SDS011;3460;52.028;8.916;2023-07-31T11:16:07;6.90;;;4.50;;
6842;SDS011;3460;52.028;8.916;2023-07-31T11:18:34;10.70;;;8.80;;
6842;SDS011;3460;52.028;8.916;2023-07-31T11:21:03;3.37;;;2.53;;
6842;SDS011;3460;52.028;8.916;2023-07-31T11:23:29;4.67;;;2.97;;
6842;SDS011;3460;52.028;8.916;2023-07-31T11:25:58;5.30;;;4.33;;
6842;SDS011;3460;52.028;8.916;2023-07-31T11:28:30;5.07;;;3.60;;
6842;SDS011;3460;52.028;8.916;2023-07-31T11:30:58;4.93;;;3.10;;
6842;SDS011;3460;52.028;8.916;2023-07-31T11:33:25;4.90;;;4.40;;
6842;SDS011;3460;52.028;8.916;2023-07-31T11:35:52;13.37;;;8.90;;
6842;SDS011;3460;52.028;8.916;2023-07-31T11:38:23;5.00;;;4.50;;
6842;SDS011;3460;52.028;8.916;2023-07-31T11:40:51;4.67;;;4.27;;
6842;SDS011;3460;52.028;8.916;2023-07-31T11:43:20;4.87;;;4.23;;
6842;SDS011;3460;52.028;8.916;2023-07-31T11:45:47;3.10;;;2.37;;
6842;SDS011;3460;52.028;8.916;2023-07-31T11:48:19;5.63;;;5.13;;
6842;SDS011;3460;52.028;8.916;2023-07-31T11:50:47;6.37;;;4.50;;
6842;SDS011;3460;52.028;8.916;2023-07-31T11:53:15;19.17;;;9.00;;
6842;SDS011;3460;52.028;8.916;2023-07-31T11:55:47;5.30;;;4.10;;
6842;SDS011;3460;52.028;8.916;2023-07-31T11:58:14;3.20;;;2.00;;
6842;SDS011;3460;52.028;8.916;2023-07-31T12:00:44;6.03;;;4.80;;
6842;SDS011;3460;52.028;8.916;2023-07-31T12:03:11;2.53;;;1.67;;
6842;SDS011;3460;52.028;8.916;2023-07-31T12:05:38;4.77;;;3.93;;
6842;SDS011;3460;52.028;8.916;2023-07-31T12:08:08;4.30;;;3.90;;
6842;SDS011;3460;52.028;8.916;2023-07-31T12:10:37;8.83;;;5.70;;
6842;SDS011;3460;52.028;8.916;2023-07-31T12:13:07;5.63;;;4.50;;
6842;SDS011;3460;52.028;8.916;2023-07-31T12:15:38;15.53;;;12.93;;
6842;SDS011;3460;52.028;8.916;2023-07-31T12:18:07;9.73;;;7.60;;
6842;SDS011;3460;52.028;8.916;2023-07-31T12:20:39;5.47;;;4.33;;
6842;SDS011;3460;52.028;8.916;2023-07-31T12:23:07;4.07;;;2.83;;
6842;SDS011;3460;52.028;8.916;2023-07-31T12:25:39;3.57;;;2.57;;
6842;SDS011;3460;52.028;8.916;2023-07-31T12:28:07;3.53;;;2.07;;
6842;SDS011;3460;52.028;8.916;2023-07-31T12:30:36;3.50;;;2.80;;
6842;SDS011;3460;52.028;8.916;2023-07-31T12:33:05;2.10;;;1.90;;
6842;SDS011;3460;52.028;8.916;2023-07-31T12:35:36;3.67;;;3.30;;
6842;SDS011;3460;52.028;8.916;2023-07-31T12:38:04;3.73;;;2.27;;
6842;SDS011;3460;52.028;8.916;2023-07-31T12:40:31;3.40;;;2.83;;
6842;SDS011;3460;52.028;8.916;2023-07-31T12:42:58;4.50;;;4.10;;
6842;SDS011;3460;52.028;8.916;2023-07-31T12:45:28;7.67;;;6.90;;
6842;SDS011;3460;52.028;8.916;2023-07-31T12:47:55;4.07;;;2.63;;
6842;SDS011;3460;52.028;8.916;2023-07-31T12:50:22;9.50;;;6.43;;
6842;SDS011;3460;52.028;8.916;2023-07-31T12:52:49;4.27;;;3.70;;
6842;SDS011;3460;52.028;8.916;2023-07-31T12:55:16;4.30;;;3.90;;
6842;SDS011;3460;52.028;8.916;2023-07-31T12:57:43;5.50;;;4.70;;
6842;SDS011;3460;52.028;8.916;2023-07-31T13:00:10;3.17;;;2.83;;
6842;SDS011;3460;52.028;8.916;2023-07-31T13:02:40;4.10;;;3.13;;
6842;SDS011;3460;52.028;8.916;2023-07-31T13:05:07;2.93;;;2.30;;
6842;SDS011;3460;52.028;8.916;2023-07-31T13:07:34;9.23;;;5.87;;
6842;SDS011;3460;52.028;8.916;2023-07-31T13:10:01;4.30;;;3.90;;
6842;SDS011;3460;52.028;8.916;2023-07-31T13:12:28;4.27;;;3.47;;
6842;SDS011;3460;52.028;8.916;2023-07-31T13:14:54;3.90;;;3.50;;
6842;SDS011;3460;52.028;8.916;2023-07-31T13:17:21;3.33;;;1.70;;
6842;SDS011;3460;52.028;8.916;2023-07-31T13:19:49;3.23;;;2.73;;
6842;SDS011;3460;52.028;8.916;2023-07-31T13:22:16;3.37;;;2.57;;
6842;SDS011;3460;52.028;8.916;2023-07-31T13:24:43;2.97;;;2.70;;
6842;SDS011;3460;52.028;8.916;2023-07-31T13:27:10;3.60;;;3.30;;
6842;SDS011;3460;52.028;8.916;2023-07-31T13:29:36;6.20;;;3.83;;
6842;SDS011;3460;52.028;8.916;2023-07-31T13:32:04;5.27;;;3.00;;
6842;SDS011;3460;52.028;8.916;2023-07-31T13:34:31;6.43;;;5.10;;
6842;SDS011;3460;52.028;8.916;2023-07-31T13:36:59;21.77;;;16.30;;
6842;SDS011;3460;52.028;8.916;2023-07-31T13:39:26;6.87;;;3.30;;
6842;SDS011;3460;52.028;8.916;2023-07-31T13:41:52;4.20;;;3.27;;
6842;SDS011;3460;52.028;8.916;2023-07-31T13:44:20;4.63;;;3.60;;
6842;SDS011;3460;52.028;8.916;2023-07-31T13:46:46;5.63;;;3.73;;
6842;SDS011;3460;52.028;8.916;2023-07-31T13:49:13;4.47;;;3.27;;
6842;SDS011;3460;52.028;8.916;2023-07-31T13:51:40;3.27;;;2.93;;
6842;SDS011;3460;52.028;8.916;2023-07-31T13:54:08;15.10;;;9.43;;
6842;SDS011;3460;52.028;8.916;2023-07-31T13:56:36;8.10;;;6.03;;
6842;SDS011;3460;52.028;8.916;2023-07-31T13:59:04;3.27;;;2.60;;
6842;SDS011;3460;52.028;8.916;2023-07-31T14:01:30;5.73;;;3.10;;
6842;SDS011;3460;52.028;8.916;2023-07-31T14:03:57;3.73;;;3.17;;
6842;SDS011;3460;52.028;8.916;2023-07-31T14:06:24;4.33;;;3.90;;
6842;SDS011;3460;52.028;8.916;2023-07-31T14:08:51;5.53;;;4.60;;
6842;SDS011;3460;52.028;8.916;2023-07-31T14:11:19;5.97;;;3.63;;
6842;SDS011;3460;52.028;8.916;2023-07-31T14:13:46;5.37;;;4.03;;
6842;SDS011;3460;52.028;8.916;2023-07-31T14:16:13;14.80;;;10.60;;
6842;SDS011;3460;52.028;8.916;2023-07-31T14:18:39;9.00;;;6.20;;
6842;SDS011;3460;52.028;8.916;2023-07-31T14:21:06;13.20;;;8.20;;
6842;SDS011;3460;52.028;8.916;2023-07-31T14:23:33;4.93;;;4.43;;
6842;SDS011;3460;52.028;8.916;2023-07-31T14:26:00;11.10;;;5.47;;
6842;SDS011;3460;52.028;8.916;2023-07-31T14:28:28;5.50;;;4.57;;
6842;SDS011;3460;52.028;8.916;2023-07-31T14:30:55;4.73;;;3.93;;
6842;SDS011;3460;52.028;8.916;2023-07-31T14:33:22;7.47;;;6.33;;
6842;SDS011;3460;52.028;8.916;2023-07-31T14:35:48;15.30;;;10.90;;
6842;SDS011;3460;52.028;8.916;2023-07-31T14:38:15;15.40;;;11.90;;
6842;SDS011;3460;52.028;8.916;2023-07-31T14:40:42;17.03;;;13.53;;
6842;SDS011;3460;52.028;8.916;2023-07-31T14:43:09;5.83;;;4.70;;
6842;SDS011;3460;52.028;8.916;2023-07-31T14:45:37;7.35;;;5.15;;
6842;SDS011;3460;52.028;8.916;2023-07-31T14:48:04;10.03;;;7.33;;
6842;SDS011;3460;52.028;8.916;2023-07-31T14:50:31;4.60;;;4.20;;
6842;SDS011;3460;52.028;8.916;2023-07-31T14:52:58;10.40;;;8.60;;
6842;SDS011;3460;52.028;8.916;2023-07-31T14:55:25;7.97;;;4.40;;
6842;SDS011;3460;52.028;8.916;2023-07-31T14:57:51;6.10;;;4.47;;
6842;SDS011;3460;52.028;8.916;2023-07-31T15:00:18;6.63;;;5.53;;
6842;SDS011;3460;52.028;8.916;2023-07-31T15:02:47;6.50;;;5.73;;
6842;SDS011;3460;52.028;8.916;2023-07-31T15:05:14;6.83;;;6.13;;
6842;SDS011;3460;52.028;8.916;2023-07-31T15:07:41;8.93;;;7.67;;
6842;SDS011;3460;52.028;8.916;2023-07-31T15:10:08;6.87;;;4.13;;
6842;SDS011;3460;52.028;8.916;2023-07-31T15:12:33;4.80;;;4.13;;
6842;SDS011;3460;52.028;8.916;2023-07-31T15:15:02;10.10;;;7.47;;
6842;SDS011;3460;52.028;8.916;2023-07-31T15:17:30;7.60;;;6.00;;